createdAt,value
2018-01-12T00:00:59.187Z,94442.56
2018-01-12T00:03:26.938Z,94445.02
2018-01-12T00:05:54.676Z,94440.52
2018-01-12T00:08:22.411Z,94449.90
2018-01-12T00:10:50.204Z,94447.74
2018-01-12T00:13:17.910Z,94442.63
2018-01-12T00:15:45.679Z,94448.64
2018-01-12T00:18:13.383Z,94456.05
2018-01-12T00:20:41.081Z,94454.95
2018-01-12T00:23:08.852Z,94459.56
2018-01-12T00:25:36.648Z,94453.97
2018-01-12T00:28:04.415Z,94453.73
2018-01-12T00:30:32.215Z,94449.10
2018-01-12T00:32:59.933Z,94456.13
2018-01-12T00:35:27.696Z,94446.84
2018-01-12T00:37:55.548Z,94452.41
2018-01-12T00:40:23.307Z,94451.20
2018-01-12T00:42:51.104Z,94450.05
2018-01-12T00:45:18.896Z,94459.09
2018-01-12T00:47:46.766Z,94462.39
2018-01-12T00:50:14.633Z,94463.12
2018-01-12T00:52:42.446Z,94459.83
2018-01-12T00:55:10.318Z,94465.25
2018-01-12T00:57:38.100Z,94466.94
2018-01-12T01:00:06.788Z,94460.78
2018-01-12T01:02:34.479Z,94462.11
2018-01-12T01:05:02.220Z,94468.07
2018-01-12T01:07:29.967Z,94471.77
2018-01-12T01:09:57.715Z,94471.96
2018-01-12T01:12:25.454Z,94472.14
2018-01-12T01:14:53.206Z,94475.20
2018-01-12T01:17:20.967Z,94474.38
2018-01-12T01:19:48.744Z,94474.67
2018-01-12T01:22:16.457Z,94479.09
2018-01-12T01:24:44.170Z,94472.82
2018-01-12T01:27:11.990Z,94478.98
2018-01-12T01:29:39.808Z,94487.03
2018-01-12T01:32:07.602Z,94482.52
2018-01-12T01:34:35.302Z,94484.52
2018-01-12T01:37:03.012Z,94484.45
2018-01-12T01:39:30.757Z,94485.55
2018-01-12T01:41:58.576Z,94487.48
2018-01-12T01:44:26.304Z,94488.52
2018-01-12T01:46:53.979Z,94491.95
2018-01-12T01:49:21.676Z,94496.91
2018-01-12T01:51:49.475Z,94506.22
2018-01-12T01:54:17.186Z,94501.28
2018-01-12T01:56:44.960Z,94506.67
2018-01-12T01:59:12.660Z,94508.69
2018-01-12T02:01:40.377Z,94515.00
2018-01-12T02:04:08.121Z,94509.56
2018-01-12T02:06:35.842Z,94506.58
2018-01-12T02:09:03.630Z,94510.94
2018-01-12T02:11:31.383Z,94509.86
2018-01-12T02:13:59.103Z,94508.13
2018-01-12T02:16:26.864Z,94512.77
2018-01-12T02:18:54.654Z,94516.61
2018-01-12T02:21:22.383Z,94518.21
2018-01-12T02:23:50.064Z,94520.31
2018-01-12T02:26:17.785Z,94518.48
2018-01-12T02:28:45.501Z,94525.69
2018-01-12T02:31:13.222Z,94528.72
2018-01-12T02:33:40.970Z,94524.38
2018-01-12T02:36:08.808Z,94528.63
2018-01-12T02:38:36.513Z,94518.59
2018-01-12T02:41:04.464Z,94526.03
2018-01-12T02:43:32.128Z,94526.52
2018-01-12T02:45:59.856Z,94525.94
2018-01-12T02:48:27.641Z,94524.11
2018-01-12T02:50:55.344Z,94526.44
2018-01-12T02:53:23.173Z,94526.74
2018-01-12T02:55:51.562Z,94532.91
2018-01-12T02:58:19.527Z,94533.19
2018-01-12T03:00:47.199Z,94528.33
2018-01-12T03:03:14.899Z,94529.98
2018-01-12T03:05:42.742Z,94528.63
2018-01-12T03:08:10.401Z,94532.81
2018-01-12T03:10:38.204Z,94533.06
2018-01-12T03:13:05.879Z,94525.94
2018-01-12T03:15:33.649Z,94527.88
2018-01-12T03:18:01.475Z,94533.15
2018-01-12T03:20:29.228Z,94531.69
2018-01-12T03:22:56.891Z,94531.78
2018-01-12T03:25:24.571Z,94535.09
2018-01-12T03:27:52.600Z,94534.94
2018-01-12T03:30:20.324Z,94536.14
2018-01-12T03:32:48.184Z,94538.77
2018-01-12T03:35:15.894Z,94542.72
2018-01-12T03:37:43.602Z,94543.03
2018-01-12T03:40:11.379Z,94548.34
2018-01-12T03:42:39.185Z,94546.81
2018-01-12T03:45:06.936Z,94548.39
2018-01-12T03:47:34.732Z,94546.14
2018-01-12T03:50:02.489Z,94542.67
2018-01-12T03:52:30.227Z,94545.38
2018-01-12T03:54:58.032Z,94541.46
2018-01-12T03:57:25.716Z,94540.08
2018-01-12T03:59:53.484Z,94541.52
2018-01-12T04:02:21.173Z,94540.52
2018-01-12T04:04:48.852Z,94546.25
2018-01-12T04:07:16.582Z,94548.88
2018-01-12T04:09:44.347Z,94549.00
2018-01-12T04:12:12.042Z,94543.89
2018-01-12T04:14:39.776Z,94546.48
2018-01-12T04:17:07.493Z,94547.91
2018-01-12T04:19:35.440Z,94549.88
2018-01-12T04:22:03.204Z,94551.67
2018-01-12T04:24:30.902Z,94552.81
2018-01-12T04:26:58.636Z,94553.91
2018-01-12T04:29:26.757Z,94557.81
2018-01-12T04:31:54.529Z,94559.75
2018-01-12T04:34:22.270Z,94558.22
2018-01-12T04:36:50.014Z,94562.64
2018-01-12T04:39:17.752Z,94556.56
2018-01-12T04:41:45.780Z,94561.42
2018-01-12T04:44:13.558Z,94558.25
2018-01-12T04:46:41.296Z,94555.15
2018-01-12T04:49:08.994Z,94560.00
2018-01-12T04:51:36.725Z,94565.12
2018-01-12T04:54:04.476Z,94560.01
2018-01-12T04:56:32.166Z,94566.22
2018-01-12T04:58:59.921Z,94561.75
2018-01-12T05:01:27.686Z,94558.42
2018-01-12T05:03:55.605Z,94560.86
2018-01-12T05:06:23.448Z,94567.30
2018-01-12T05:08:51.196Z,94567.47
2018-01-12T05:11:18.926Z,94567.47
2018-01-12T05:13:46.682Z,94567.87
2018-01-12T05:16:14.385Z,94578.49
2018-01-12T05:18:42.137Z,94578.78
2018-01-12T05:21:09.939Z,94581.05
2018-01-12T05:23:37.958Z,94581.77
2018-01-12T05:26:05.693Z,94590.84
2018-01-12T05:28:33.432Z,94597.00
2018-01-12T05:31:01.761Z,94599.28
2018-01-12T05:33:29.525Z,94601.48
2018-01-12T05:35:57.426Z,94610.29
2018-01-12T05:38:25.187Z,94607.28
2018-01-12T05:40:52.917Z,94612.43
2018-01-12T05:43:20.681Z,94615.80
2018-01-12T05:45:48.426Z,94625.69
2018-01-12T05:48:16.254Z,94611.63
2018-01-12T05:50:43.953Z,94623.25
2018-01-12T05:53:11.674Z,94629.86
2018-01-12T05:55:39.365Z,94623.91
2018-01-12T05:58:07.093Z,94627.82
2018-01-12T06:00:34.838Z,94637.17
2018-01-12T06:03:14.200Z,94633.73
2018-01-12T06:05:53.772Z,94636.54
2018-01-12T06:08:21.509Z,94640.78
2018-01-12T06:10:49.194Z,94646.42
2018-01-12T06:13:16.917Z,94636.20
2018-01-12T06:15:44.606Z,94644.42
2018-01-12T06:18:12.656Z,94639.21
2018-01-12T06:20:40.357Z,94647.94
2018-01-12T06:23:08.106Z,94643.31
2018-01-12T06:25:35.883Z,94646.92
2018-01-12T06:28:03.597Z,94649.08
2018-01-12T06:30:31.285Z,94644.34
2018-01-12T06:32:59.020Z,94644.09
2018-01-12T06:35:26.689Z,94642.31
2018-01-12T06:37:54.472Z,94642.63
2018-01-12T06:40:22.180Z,94644.66
2018-01-12T06:42:49.858Z,94644.38
2018-01-12T06:45:17.616Z,94640.67
2018-01-12T06:47:45.303Z,94639.83
2018-01-12T06:50:13.070Z,94643.16
2018-01-12T06:52:40.772Z,94645.30
2018-01-12T06:55:08.438Z,94646.65
2018-01-12T06:57:36.182Z,94639.12
2018-01-12T07:00:04.031Z,94645.33
2018-01-12T07:02:31.790Z,94646.17
2018-01-12T07:04:59.472Z,94648.92
2018-01-12T07:07:27.233Z,94653.41
2018-01-12T07:09:54.963Z,94655.17
2018-01-12T07:12:22.699Z,94661.05
2018-01-12T07:14:50.493Z,94653.47
2018-01-12T07:17:18.240Z,94655.67
2018-01-12T07:19:46.004Z,94665.80
2018-01-12T07:22:25.444Z,94664.40
2018-01-12T07:24:53.286Z,94663.16
2018-01-12T07:27:21.157Z,94658.23
2018-01-12T07:29:48.885Z,94661.38
2018-01-12T07:32:16.735Z,94661.53
2018-01-12T07:34:44.469Z,94660.39
2018-01-12T07:37:12.288Z,94665.08
2018-01-12T07:39:40.065Z,94677.20
2018-01-12T07:42:07.846Z,94682.98
2018-01-12T07:44:35.655Z,94677.73
2018-01-12T07:47:03.416Z,94681.09
2018-01-12T07:49:31.208Z,94682.19
2018-01-12T07:51:59.023Z,94687.17
2018-01-12T07:54:26.824Z,94689.28
2018-01-12T07:56:54.608Z,94694.52
2018-01-12T07:59:22.381Z,94693.98
2018-01-12T08:01:55.712Z,94693.55
2018-01-12T08:04:23.569Z,94699.33
2018-01-12T08:06:51.335Z,94698.81
2018-01-12T08:09:19.090Z,94698.58
2018-01-12T08:11:46.801Z,94702.64
2018-01-12T08:14:14.553Z,94706.06
2018-01-12T08:16:42.488Z,94711.52
2018-01-12T08:19:10.307Z,94706.32
2018-01-12T08:21:38.057Z,94708.05
2018-01-12T08:24:05.842Z,94707.50
2018-01-12T08:26:33.626Z,94714.28
2018-01-12T08:29:01.454Z,94719.85
2018-01-12T08:31:29.267Z,94712.52
2018-01-12T08:33:57.015Z,94708.50
2018-01-12T08:36:24.893Z,94712.18
2018-01-12T08:38:52.752Z,94721.50
2018-01-12T08:41:20.499Z,94723.59
2018-01-12T08:43:48.370Z,94725.56
2018-01-12T08:46:16.080Z,94721.95
2018-01-12T08:48:43.822Z,94719.86
2018-01-12T08:51:11.659Z,94723.00
2018-01-12T08:53:39.371Z,94727.63
2018-01-12T08:56:07.736Z,94726.64
2018-01-12T08:58:35.469Z,94727.19
2018-01-12T09:01:03.176Z,94729.30
2018-01-12T09:03:30.917Z,94739.14
2018-01-12T09:05:58.600Z,94740.70
2018-01-12T09:08:26.307Z,94735.07
2018-01-12T09:10:54.063Z,94734.06
2018-01-12T09:13:33.530Z,94742.81
2018-01-12T09:16:10.438Z,94737.97
2018-01-12T09:18:50.777Z,94745.14
2018-01-12T09:21:25.720Z,94740.43
2018-01-12T09:23:56.409Z,94741.48
2018-01-12T09:26:24.155Z,94745.31
2018-01-12T09:28:51.899Z,94748.82
2018-01-12T09:31:19.769Z,94747.73
2018-01-12T09:33:48.410Z,94744.45
2018-01-12T09:36:16.138Z,94743.15
2018-01-12T09:38:53.586Z,94745.72
2018-01-12T09:41:21.349Z,94758.91
2018-01-12T09:43:49.107Z,94756.49
2018-01-12T09:46:16.876Z,94751.56
2018-01-12T09:48:51.591Z,94757.56
2018-01-12T09:51:19.397Z,94756.17
2018-01-12T09:53:47.238Z,94758.74
2018-01-12T09:56:15.035Z,94752.11
2018-01-12T09:58:45.753Z,94753.47
2018-01-12T10:01:26.083Z,94759.05
2018-01-12T10:03:53.836Z,94754.48
2018-01-12T10:06:21.531Z,94759.14
2018-01-12T10:08:49.335Z,94754.61
2018-01-12T10:11:17.077Z,94758.81
2018-01-12T10:13:44.797Z,94758.34
2018-01-12T10:16:12.674Z,94763.69
2018-01-12T10:18:42.374Z,94754.91
2018-01-12T10:21:21.774Z,94749.02
2018-01-12T10:23:49.505Z,94746.23
2018-01-12T10:26:17.191Z,94746.59
2018-01-12T10:28:56.709Z,94753.06
2018-01-12T10:31:33.189Z,94749.22
2018-01-12T10:34:07.692Z,94751.20
2018-01-12T10:36:40.128Z,94754.86
2018-01-12T10:39:19.570Z,94750.91
2018-01-12T10:41:59.046Z,94748.72
2018-01-12T10:44:26.841Z,94745.56
2018-01-12T10:47:06.366Z,94741.51
2018-01-12T10:49:34.177Z,94740.68
2018-01-12T10:52:07.730Z,94737.05
2018-01-12T10:54:35.472Z,94741.27
2018-01-12T10:57:03.174Z,94737.86
2018-01-12T10:59:30.915Z,94739.58
2018-01-12T11:01:58.590Z,94735.73
2018-01-12T11:04:26.352Z,94725.83
2018-01-12T11:06:54.038Z,94728.75
2018-01-12T11:09:21.818Z,94728.39
2018-01-12T11:11:49.573Z,94733.20
2018-01-12T11:14:17.301Z,94721.14
2018-01-12T11:16:45.012Z,94727.81
2018-01-12T11:19:12.760Z,94732.89
2018-01-12T11:21:40.551Z,94727.11
2018-01-12T11:24:08.334Z,94718.34
2018-01-12T11:26:36.018Z,94720.60
2018-01-12T11:29:03.768Z,94724.30
2018-01-12T11:31:31.598Z,94717.49
2018-01-12T11:33:59.308Z,94714.85
2018-01-12T11:36:27.136Z,94715.98
2018-01-12T11:38:54.908Z,94718.72
2018-01-12T11:41:22.595Z,94717.72
2018-01-12T11:43:50.356Z,94713.09
2018-01-12T11:46:18.082Z,94715.61
2018-01-12T11:48:45.762Z,94718.41
2018-01-12T11:51:13.558Z,94715.80
2018-01-12T11:53:41.281Z,94715.02
2018-01-12T11:56:08.979Z,94704.08
2018-01-12T11:58:36.837Z,94702.52
2018-01-12T12:01:04.642Z,94703.58
2018-01-12T12:03:32.456Z,94709.20
2018-01-12T12:06:00.226Z,94708.35
2018-01-12T12:08:28.118Z,94703.56
2018-01-12T12:10:55.932Z,94691.35
2018-01-12T12:13:23.654Z,94703.79
2018-01-12T12:15:51.486Z,94693.36
2018-01-12T12:18:19.174Z,94702.59
2018-01-12T12:20:46.964Z,94697.11
2018-01-12T12:23:14.784Z,94702.59
2018-01-12T12:25:43.211Z,94693.48
2018-01-12T12:28:10.949Z,94689.47
2018-01-12T12:30:38.684Z,94686.73
2018-01-12T12:33:07.363Z,94689.75
2018-01-12T12:35:35.051Z,94679.00
2018-01-12T12:38:02.848Z,94683.95
2018-01-12T12:40:31.220Z,94679.89
2018-01-12T12:42:59.012Z,94681.45
2018-01-12T12:45:26.911Z,94678.12
2018-01-12T12:47:54.686Z,94680.23
2018-01-12T12:50:22.555Z,94674.93
2018-01-12T12:52:50.296Z,94671.33
2018-01-12T12:55:18.067Z,94678.45
2018-01-12T12:57:45.856Z,94673.81
2018-01-12T13:00:13.628Z,94671.29
2018-01-12T13:02:41.392Z,94674.09
2018-01-12T13:05:09.190Z,94671.41
2018-01-12T13:07:37.062Z,94678.29
2018-01-12T13:10:04.972Z,94673.70
2018-01-12T13:12:32.753Z,94673.18
2018-01-12T13:15:00.683Z,94673.31
2018-01-12T13:17:28.397Z,94679.57
2018-01-12T13:19:56.187Z,94678.45
2018-01-12T13:22:24.821Z,94676.95
2018-01-12T13:24:52.563Z,94675.92
2018-01-12T13:27:20.285Z,94675.58
2018-01-12T13:29:48.021Z,94670.45
2018-01-12T13:32:15.730Z,94672.78
2018-01-12T13:34:43.556Z,94678.80
2018-01-12T13:37:11.391Z,94680.44
2018-01-12T13:39:39.088Z,94689.80
2018-01-12T13:42:06.942Z,94692.10
2018-01-12T13:44:34.712Z,94695.30
2018-01-12T13:47:02.507Z,94690.82
2018-01-12T13:49:30.195Z,94689.36
2018-01-12T13:51:57.977Z,94697.40
2018-01-12T13:54:25.668Z,94699.90
2018-01-12T13:56:53.360Z,94698.77
2018-01-12T13:59:21.305Z,94705.09
2018-01-12T14:01:49.089Z,94707.75
2018-01-12T14:04:16.875Z,94711.54
2018-01-12T14:06:44.610Z,94710.91
2018-01-12T14:09:12.413Z,94707.13
2018-01-12T14:11:40.184Z,94711.78
2018-01-12T14:14:08.034Z,94715.23
2018-01-12T14:16:35.784Z,94721.84
2018-01-12T14:19:03.568Z,94720.09
2018-01-12T14:21:31.332Z,94715.09
2018-01-12T14:23:59.066Z,94719.41
2018-01-12T14:26:27.117Z,94723.91
2018-01-12T14:28:55.294Z,94728.33
2018-01-12T14:31:23.038Z,94724.47
2018-01-12T14:33:50.784Z,94731.84
2018-01-12T14:36:18.660Z,94732.03
2018-01-12T14:38:46.428Z,94727.23
2018-01-12T14:41:14.186Z,94736.84
2018-01-12T14:43:42.041Z,94733.14
2018-01-12T14:46:09.812Z,94732.91
2018-01-12T14:48:37.666Z,94736.59
2018-01-12T14:51:05.531Z,94738.43
2018-01-12T14:53:33.304Z,94744.61
2018-01-12T14:56:01.262Z,94745.24
2018-01-12T14:58:29.064Z,94750.22
2018-01-12T15:00:56.784Z,94750.56
2018-01-12T15:03:24.585Z,94758.83
2018-01-12T15:05:53.182Z,94761.94
2018-01-12T15:08:20.897Z,94762.72
2018-01-12T15:10:48.660Z,94772.20
2018-01-12T15:13:16.472Z,94774.67
2018-01-12T15:15:44.199Z,94770.59
2018-01-12T15:18:11.923Z,94772.75
2018-01-12T15:20:40.153Z,94770.84
2018-01-12T15:23:08.608Z,94771.65
2018-01-12T15:25:36.467Z,94775.65
2018-01-12T15:28:04.402Z,94776.72
2018-01-12T15:30:32.162Z,94782.18
2018-01-12T15:33:00.102Z,94782.28
2018-01-12T15:35:27.998Z,94779.41
2018-01-12T15:37:55.778Z,94784.14
2018-01-12T15:40:24.265Z,94783.51
2018-01-12T15:42:52.146Z,94780.92
2018-01-12T15:45:19.917Z,94782.91
2018-01-12T15:47:47.676Z,94790.83
2018-01-12T15:50:15.541Z,94787.86
2018-01-12T15:52:43.282Z,94793.03
2018-01-12T15:55:11.047Z,94788.06
2018-01-12T15:57:38.764Z,94795.45
2018-01-12T16:00:06.615Z,94798.41
2018-01-12T16:02:34.379Z,94795.67
2018-01-12T16:05:02.137Z,94795.72
2018-01-12T16:07:29.940Z,94799.16
2018-01-12T16:09:57.833Z,94804.39
2018-01-12T16:12:25.740Z,94800.95
2018-01-12T16:14:54.411Z,94808.23
2018-01-12T16:17:22.212Z,94809.11
2018-01-12T16:19:49.959Z,94812.23
2018-01-12T16:22:17.707Z,94808.88
2018-01-12T16:24:45.622Z,94818.36
2018-01-12T16:27:13.737Z,94817.84
2018-01-12T16:29:41.630Z,94822.41
2018-01-12T16:32:09.590Z,94817.62
2018-01-12T16:34:37.325Z,94810.81
2018-01-12T16:37:05.145Z,94816.45
2018-01-12T16:39:32.939Z,94814.72
2018-01-12T16:42:00.684Z,94819.26
2018-01-12T16:44:28.472Z,94821.85
2018-01-12T16:46:56.273Z,94826.47
2018-01-12T16:49:24.004Z,94818.05
2018-01-12T16:51:52.152Z,94823.88
2018-01-12T16:54:19.924Z,94816.84
2018-01-12T16:56:47.634Z,94825.27
2018-01-12T16:59:15.449Z,94821.23
2018-01-12T17:01:43.210Z,94821.53
2018-01-12T17:04:10.929Z,94822.48
2018-01-12T17:06:38.866Z,94818.06
2018-01-12T17:09:06.628Z,94822.75
2018-01-12T17:11:35.618Z,94817.66
2018-01-12T17:14:03.587Z,94815.83
2018-01-12T17:16:32.378Z,94813.30
2018-01-12T17:19:00.169Z,94815.23
2018-01-12T17:21:27.930Z,94810.30
2018-01-12T17:23:55.708Z,94812.72
2018-01-12T17:26:23.536Z,94818.24
2018-01-12T17:28:51.243Z,94814.80
2018-01-12T17:31:18.973Z,94815.80
2018-01-12T17:33:46.784Z,94812.39
2018-01-12T17:36:14.542Z,94806.75
2018-01-12T17:38:42.258Z,94812.75
2018-01-12T17:41:10.779Z,94812.89
2018-01-12T17:43:38.674Z,94808.88
2018-01-12T17:46:06.471Z,94826.30
2018-01-12T17:48:34.265Z,94819.23
2018-01-12T17:51:02.118Z,94820.00
2018-01-12T17:53:31.300Z,94820.30
2018-01-12T17:55:59.874Z,94827.21
2018-01-12T17:58:27.797Z,94826.15
2018-01-12T18:00:55.566Z,94829.41
2018-01-12T18:03:29.404Z,94835.88
2018-01-12T18:06:04.036Z,94832.95
2018-01-12T18:08:33.474Z,94832.38
2018-01-12T18:11:06.303Z,94833.28
2018-01-12T18:13:35.556Z,94836.77
2018-01-12T18:16:09.738Z,94841.70
2018-01-12T18:18:37.933Z,94844.08
2018-01-12T18:21:05.674Z,94847.88
2018-01-12T18:23:33.450Z,94838.77
2018-01-12T18:26:01.204Z,94850.14
2018-01-12T18:28:29.072Z,94848.28
2018-01-12T18:30:56.919Z,94843.49
2018-01-12T18:33:24.800Z,94849.53
2018-01-12T18:35:52.827Z,94851.61
2018-01-12T18:38:21.428Z,94856.73
2018-01-12T18:40:49.656Z,94865.02
2018-01-12T18:43:17.462Z,94857.58
2018-01-12T18:45:45.304Z,94862.70
2018-01-12T18:48:13.170Z,94857.58
2018-01-12T18:50:41.783Z,94853.27
2018-01-12T18:53:09.651Z,94860.07
2018-01-12T18:55:37.562Z,94866.66
2018-01-12T18:58:06.575Z,94859.78
2018-01-12T19:00:34.624Z,94858.83
2018-01-12T19:03:03.157Z,94866.17
2018-01-12T19:05:30.930Z,94858.41
2018-01-12T19:07:58.778Z,94865.23
2018-01-12T19:10:26.790Z,94863.75
2018-01-12T19:12:54.571Z,94866.09
2018-01-12T19:15:22.350Z,94867.12
2018-01-12T19:17:51.357Z,94871.52
2018-01-12T19:20:19.277Z,94873.55
2018-01-12T19:22:48.105Z,94872.83
2018-01-12T19:25:16.821Z,94871.69
2018-01-12T19:27:44.786Z,94872.56
2018-01-12T19:30:12.689Z,94873.73
2018-01-12T19:32:40.745Z,94871.03
2018-01-12T19:35:09.685Z,94877.14
2018-01-12T19:37:37.645Z,94883.59
2018-01-12T19:40:06.669Z,94881.09
2018-01-12T19:42:34.818Z,94874.55
2018-01-12T19:45:02.754Z,94876.23
2018-01-12T19:47:30.702Z,94873.34
2018-01-12T19:49:58.533Z,94875.86
2018-01-12T19:52:26.339Z,94878.63
2018-01-12T19:54:54.291Z,94882.19
2018-01-12T19:57:22.268Z,94882.38
2018-01-12T19:59:50.568Z,94886.29
2018-01-12T20:02:19.616Z,94887.14
2018-01-12T20:04:47.409Z,94886.48
2018-01-12T20:07:15.351Z,94892.52
2018-01-12T20:09:43.425Z,94890.17
2018-01-12T20:12:11.273Z,94888.25
2018-01-12T20:14:39.118Z,94883.23
2018-01-12T20:17:08.266Z,94887.55
2018-01-12T20:19:35.987Z,94892.98
2018-01-12T20:22:03.822Z,94891.16
2018-01-12T20:24:31.862Z,94890.31
2018-01-12T20:26:59.790Z,94890.31
2018-01-12T20:29:27.675Z,94888.22
2018-01-12T20:31:55.904Z,94891.39
2018-01-12T20:34:24.084Z,94899.06
2018-01-12T20:36:52.076Z,94898.60
2018-01-12T20:39:21.611Z,94899.81
2018-01-12T20:41:50.180Z,94904.50
2018-01-12T20:44:18.155Z,94905.12
2018-01-12T20:46:45.918Z,94907.61
2018-01-12T20:49:14.263Z,94907.66
2018-01-12T20:51:42.121Z,94907.77
2018-01-12T20:54:09.882Z,94906.27
2018-01-12T20:56:37.660Z,94906.77
2018-01-12T20:59:06.510Z,94898.19
2018-01-12T21:01:34.463Z,94900.66
2018-01-12T21:04:03.252Z,94898.72
2018-01-12T21:06:31.262Z,94897.74
2018-01-12T21:08:59.180Z,94896.65
2018-01-12T21:11:27.025Z,94902.25
2018-01-12T21:13:55.657Z,94902.31
2018-01-12T21:16:24.581Z,94903.08
2018-01-12T21:18:52.353Z,94902.42
2018-01-12T21:21:21.077Z,94909.66
2018-01-12T21:23:49.281Z,94907.28
2018-01-12T21:26:17.286Z,94901.61
2018-01-12T21:28:45.168Z,94907.03
2018-01-12T21:31:13.689Z,94910.39
2018-01-12T21:33:41.482Z,94910.72
2018-01-12T21:36:09.515Z,94908.73
2018-01-12T21:38:37.573Z,94907.30
2018-01-12T21:41:06.346Z,94914.77
2018-01-12T21:43:34.331Z,94908.16
2018-01-12T21:46:02.622Z,94901.94
2018-01-12T21:48:30.972Z,94900.88
2018-01-12T21:50:59.041Z,94903.39
2018-01-12T21:53:26.890Z,94910.46
2018-01-12T21:55:54.844Z,94908.33
2018-01-12T21:58:22.779Z,94908.77
2018-01-12T22:00:50.793Z,94908.82
2018-01-12T22:03:18.629Z,94913.88
2018-01-12T22:05:47.366Z,94907.98
2018-01-12T22:08:15.167Z,94911.20
2018-01-12T22:10:42.932Z,94917.53
2018-01-12T22:13:10.687Z,94911.25
2018-01-12T22:15:38.441Z,94907.86
2018-01-12T22:18:06.280Z,94911.20
2018-01-12T22:20:35.224Z,94904.41
2018-01-12T22:23:02.968Z,94903.51
2018-01-12T22:25:30.719Z,94907.47
2018-01-12T22:27:58.531Z,94905.89
2018-01-12T22:30:26.967Z,94906.51
2018-01-12T22:32:54.730Z,94900.55
2018-01-12T22:35:22.503Z,94902.36
2018-01-12T22:37:50.348Z,94902.67
2018-01-12T22:40:18.089Z,94897.44
2018-01-12T22:42:45.875Z,94894.04
2018-01-12T22:45:13.627Z,94892.42
2018-01-12T22:47:42.311Z,94893.67
2018-01-12T22:50:10.106Z,94885.30
2018-01-12T22:52:37.896Z,94883.73
2018-01-12T22:55:05.656Z,94884.92
2018-01-12T22:57:33.319Z,94877.13
2018-01-12T23:00:01.044Z,94874.32
2018-01-12T23:02:28.894Z,94871.66
2018-01-12T23:04:56.602Z,94864.73
2018-01-12T23:07:24.345Z,94867.70
2018-01-12T23:09:52.108Z,94864.08
2018-01-12T23:12:19.861Z,94863.52
2018-01-12T23:14:48.516Z,94863.22
2018-01-12T23:17:16.273Z,94858.45
2018-01-12T23:19:44.063Z,94858.86
2018-01-12T23:22:11.831Z,94861.06
2018-01-12T23:24:39.601Z,94854.80
2018-01-12T23:27:07.360Z,94853.45
2018-01-12T23:29:35.383Z,94849.22
2018-01-12T23:32:03.166Z,94854.92
2018-01-12T23:34:30.903Z,94845.67
2018-01-12T23:36:58.675Z,94849.01
2018-01-12T23:39:26.350Z,94843.77
2018-01-12T23:41:54.132Z,94851.23
2018-01-12T23:44:21.889Z,94842.41
2018-01-12T23:46:49.665Z,94838.72
2018-01-12T23:49:17.432Z,94828.19
2018-01-12T23:51:45.158Z,94832.54
2018-01-12T23:54:12.834Z,94829.39
2018-01-12T23:56:40.569Z,94835.21
2018-01-12T23:59:08.285Z,94834.04
